PMDY

Details ICAO PMDY (MDY)
Name Midway Atoll
Region USA (Midway Island)
Timezone Pacific/Midway (UTC-11.0)
Plans Departing 100
Arriving 126
Stats Elevation 13 ft / 4 m (AMSL)
Location 28.201436° -177.381468°
Runways 1
Magnetic Variation 7.396° E
Sunrise 2018-05-22 16:57:21 UTC / 2018-05-22 05:57:21 Local
Sunset 2018-05-23 06:37:58 UTC / 2018-05-22 19:37:58 Local
Advertisement - Login to hide

Runways

ID Width Length Bearing (true) Bearing (mag) Surface Threshold Offset Overrun Length
06 200 ft / 61 m 7,897 ft / 2,407 m 68.49° 61.09° Asphalt 0 ft / 0 m 499 ft / 152 m
24 200 ft / 61 m 7,897 ft / 2,407 m 248.51° 241.11° Asphalt 0 ft / 0 m 135 ft / 41 m

Map

Weather


0- 5 10 15 20 25 30 35+ Temperature / ° C

Clouds and Precipitation
Forecast for 2018-05-22 12:00 UTC. Updated 5 hours ago

Ground ~20,000 ft ~40,000 ft Winds

METAR

PMDY 221556Z AUTO 10009KT 10SM CLR 21/18 A3025 RMK AO2 SLP243 T02110183

TAF

PMDY 221123Z 2212/2312 09011KT P6SM SCT020

Frequencies

Recorded 118.32 MHz AWOS 3
Unicom 122.90 MHz CTAF
Warning: Do not use this data for real-world aviation or navigation. No guarantee of current accuracy is given.